Time;durP1;ratioP1;P1;durP2;ratioP2;P2;SDS_P1;SDS_P2;PMS_P1;PMS_P2;Temp;Humidity;BMP_temperature;BMP_pressure;BME280_temperature;BME280_humidity;BME280_pressure;Samples;Min_cycle;Max_cycle;Signal;HPM_P1;HPM_P2
2023/03/02 00:00:35;;;;;;;23.53;13.53;;;;;;;2.89;100.00;102912.44;4990043;28;20207;-69
2023/03/02 00:03:01;;;;;;;24.97;14.43;;;;;;;2.88;100.00;102904.72;4984428;28;20290;-69
2023/03/02 00:05:28;;;;;;;23.70;13.00;;;;;;;2.88;100.00;102903.09;4987433;28;20204;-69
2023/03/02 00:07:54;;;;;;;25.20;14.50;;;;;;;2.88;100.00;102907.25;4990091;28;20220;-70
2023/03/02 00:10:19;;;;;;;23.43;13.53;;;;;;;2.87;100.00;102903.84;4989401;28;20746;-68
2023/03/02 00:12:45;;;;;;;27.00;14.00;;;;;;;2.82;100.00;102905.13;4990171;28;20310;-70
2023/03/02 00:15:11;;;;;;;28.33;14.77;;;;;;;2.83;100.00;102900.94;4983795;28;20195;-67
2023/03/02 00:17:36;;;;;;;28.87;15.30;;;;;;;2.83;100.00;102909.41;4989235;28;20191;-68
2023/03/02 00:20:11;;;;;;;24.73;14.03;;;;;;;2.76;100.00;102904.59;4991609;28;20199;-68
2023/03/02 00:22:38;;;;;;;26.70;13.97;;;;;;;2.77;100.00;102895.38;4989912;28;20212;-69
2023/03/02 00:25:04;;;;;;;28.07;14.67;;;;;;;2.72;100.00;102897.50;4988037;28;20737;-69
2023/03/02 00:27:30;;;;;;;26.07;14.60;;;;;;;2.71;100.00;102889.81;4985610;28;20224;-68
2023/03/02 00:29:56;;;;;;;25.87;14.30;;;;;;;2.64;100.00;102892.56;4984315;28;20200;-69
2023/03/02 00:32:21;;;;;;;26.80;14.03;;;;;;;2.51;100.00;102884.72;4986655;28;20570;-68
2023/03/02 00:34:47;;;;;;;25.93;14.60;;;;;;;2.55;100.00;102886.75;4986098;28;20202;-68
2023/03/02 00:37:12;;;;;;;25.37;14.77;;;;;;;2.54;100.00;102875.78;4988022;28;20184;-68
2023/03/02 00:39:38;;;;;;;24.33;12.97;;;;;;;2.51;100.00;102888.16;4988097;28;20726;-68
2023/03/02 00:42:03;;;;;;;26.00;14.20;;;;;;;2.46;100.00;102884.34;4969604;28;20211;-67
2023/03/02 00:44:29;;;;;;;26.80;14.23;;;;;;;2.48;100.00;102876.91;5006311;28;20196;-69
2023/03/02 00:46:54;;;;;;;27.37;14.63;;;;;;;2.46;100.00;102884.34;4965600;28;20209;-69
2023/03/02 00:49:20;;;;;;;22.00;13.07;;;;;;;2.42;100.00;102874.72;4987573;28;20322;-68
2023/03/02 00:51:45;;;;;;;23.73;14.20;;;;;;;2.44;100.00;102885.84;4989734;28;20865;-68
2023/03/02 00:54:11;;;;;;;20.43;11.60;;;;;;;2.40;100.00;102880.41;4988305;28;20192;-69
2023/03/02 00:56:36;;;;;;;21.43;12.13;;;;;;;2.40;100.00;102876.25;4986863;28;20672;-69
2023/03/02 00:59:09;;;;;;;22.83;12.60;;;;;;;2.35;100.00;102871.56;4985343;28;20339;-69
2023/03/02 01:01:36;;;;;;;22.17;12.70;;;;;;;2.35;100.00;102863.97;4983444;28;20715;-67
2023/03/02 01:04:02;;;;;;;20.27;12.23;;;;;;;2.36;100.00;102870.81;4990533;28;20589;-68
2023/03/02 01:06:28;;;;;;;22.97;12.37;;;;;;;2.31;100.00;102864.47;4971091;28;20211;-69
2023/03/02 01:08:54;;;;;;;23.30;12.70;;;;;;;2.30;100.00;102868.63;4984600;28;20192;-67
2023/03/02 01:11:21;;;;;;;25.80;13.53;;;;;;;2.22;100.00;102869.66;4984118;28;20196;-70
2023/03/02 01:13:47;;;;;;;21.67;12.23;;;;;;;2.23;100.00;102866.34;4988105;28;20270;-68
2023/03/02 01:16:13;;;;;;;20.90;12.30;;;;;;;2.21;100.00;102862.81;4988331;28;20219;-69
2023/03/02 01:18:39;;;;;;;25.23;12.13;;;;;;;2.24;100.00;102857.13;4991957;28;20683;-68
2023/03/02 01:21:13;;;;;;;23.10;13.57;;;;;;;2.26;100.00;102850.56;4986048;28;20195;-68
2023/03/02 01:23:39;;;;;;;22.67;12.50;;;;;;;2.28;100.00;102844.00;4982434;28;20206;-68
2023/03/02 01:26:05;;;;;;;20.70;11.93;;;;;;;2.23;100.00;102853.72;4988728;28;20212;-68
2023/03/02 01:28:31;;;;;;;21.50;12.70;;;;;;;2.26;100.00;102848.91;4987297;28;20194;-66
2023/03/02 01:30:57;;;;;;;22.07;12.83;;;;;;;2.27;100.00;102840.59;4990671;28;20196;-67
2023/03/02 01:33:22;;;;;;;21.27;12.57;;;;;;;2.29;100.00;102843.25;4985634;28;20263;-69
2023/03/02 01:35:48;;;;;;;22.40;12.50;;;;;;;2.21;100.00;102842.59;4988512;28;20196;-69
2023/03/02 01:38:13;;;;;;;23.53;13.50;;;;;;;2.26;100.00;102838.81;4984410;28;20313;-68
2023/03/02 01:40:39;;;;;;;21.53;12.90;;;;;;;2.22;100.00;102838.44;4986418;28;20214;-67
2023/03/02 01:43:12;;;;;;;22.47;12.93;;;;;;;2.19;100.00;102841.59;4985909;28;20239;-70
2023/03/02 01:45:47;;;;;;;23.33;13.43;;;;;;;2.14;100.00;102840.31;4984775;28;20203;-70
2023/03/02 01:48:22;;;;;;;22.50;12.60;;;;;;;2.17;100.00;102837.16;4977965;28;20651;-69
2023/03/02 01:50:48;;;;;;;23.67;13.17;;;;;;;2.19;100.00;102835.63;4980102;28;20190;-67
2023/03/02 01:53:15;;;;;;;24.80;14.13;;;;;;;2.19;100.00;102834.00;4987184;28;20689;-68
2023/03/02 01:55:43;;;;;;;23.83;13.27;;;;;;;2.18;100.00;102839.81;4990645;28;20249;-69
2023/03/02 01:58:12;;;;;;;24.20;13.13;;;;;;;2.17;100.00;102840.59;4986959;28;20207;-68
2023/03/02 02:00:38;;;;;;;27.17;14.37;;;;;;;2.18;100.00;102842.34;4989687;28;20223;-70
2023/03/02 02:03:13;;;;;;;26.17;13.87;;;;;;;2.17;100.00;102833.00;4987778;28;20219;-68
2023/03/02 02:05:45;;;;;;;30.70;15.37;;;;;;;2.18;100.00;102833.88;4994406;28;20268;-69
2023/03/02 02:08:11;;;;;;;25.87;13.80;;;;;;;2.17;100.00;102834.63;4990957;28;20215;-69
2023/03/02 02:10:38;;;;;;;27.00;14.20;;;;;;;2.19;100.00;102839.06;4993883;28;20200;-68
2023/03/02 02:13:08;;;;;;;25.33;13.43;;;;;;;2.15;100.00;102833.63;4991845;28;20219;-69
2023/03/02 02:15:33;;;;;;;24.43;13.77;;;;;;;2.15;100.00;102833.63;4987193;28;20272;-69
2023/03/02 02:17:59;;;;;;;22.87;12.60;;;;;;;2.15;100.00;102821.00;4991216;28;20199;-69
2023/03/02 02:20:36;;;;;;;22.77;12.63;;;;;;;2.16;100.00;102818.56;4991577;28;20207;-68
2023/03/02 02:23:14;;;;;;;24.67;13.63;;;;;;;2.16;100.00;102817.72;4988786;28;20222;-69
2023/03/02 02:25:51;;;;;;;21.53;12.67;;;;;;;2.14;100.00;102817.59;4992440;28;20209;-70
2023/03/02 02:28:27;;;;;;;24.63;13.70;;;;;;;2.11;100.00;102817.31;4968645;28;20196;-67
2023/03/02 02:31:09;;;;;;;25.57;12.63;;;;;;;2.05;100.00;102816.81;4993032;28;20279;-69
2023/03/02 02:33:37;;;;;;;25.63;13.17;;;;;;;2.05;100.00;102818.44;4993464;28;20219;-69
2023/03/02 02:36:12;;;;;;;22.27;12.40;;;;;;;2.07;100.00;102812.75;4985193;28;20203;-70
2023/03/02 02:38:39;;;;;;;21.00;12.53;;;;;;;2.05;100.00;102811.75;4965697;28;21029;-69
2023/03/02 02:41:10;;;;;;;19.63;11.03;;;;;;;1.96;100.00;102816.03;4989063;28;20556;-70
2023/03/02 02:43:35;;;;;;;22.07;12.33;;;;;;;1.98;100.00;102821.22;4987473;28;20303;-69
2023/03/02 02:46:02;;;;;;;20.97;11.77;;;;;;;1.94;100.00;102816.66;4982891;28;20752;-70
2023/03/02 02:48:31;;;;;;;20.80;12.00;;;;;;;1.94;100.00;102814.13;4992229;28;20191;-70
2023/03/02 02:51:01;;;;;;;21.43;11.93;;;;;;;1.94;100.00;102816.66;4965853;28;20204;-69
2023/03/02 02:53:33;;;;;;;22.30;13.50;;;;;;;1.94;100.00;102804.03;4989151;28;20281;-70
2023/03/02 02:55:59;;;;;;;25.10;13.80;;;;;;;1.92;100.00;102800.50;4983562;28;20250;-68
2023/03/02 02:58:57;;;;;;;24.33;13.07;;;;;;;1.92;100.00;102811.47;4991411;28;20661;-69
2023/03/02 03:01:24;;;;;;;21.37;12.47;;;;;;;1.94;100.00;102812.50;4970658;28;20223;-69
2023/03/02 03:03:52;;;;;;;20.87;12.37;;;;;;;1.86;100.00;102810.94;4985021;28;20220;-69
2023/03/02 03:06:24;;;;;;;25.13;12.90;;;;;;;1.78;100.00;102803.44;4982487;28;20222;-68
2023/03/02 03:08:57;;;;;;;23.87;12.47;;;;;;;1.77;100.00;102816.84;4990520;28;20618;-68
2023/03/02 03:11:32;;;;;;;24.50;12.87;;;;;;;1.73;100.00;102807.22;4991259;28;20235;-70
2023/03/02 03:14:01;;;;;;;23.17;12.30;;;;;;;1.75;100.00;102808.25;4990671;28;20302;-68
2023/03/02 03:16:28;;;;;;;23.10;12.63;;;;;;;1.75;100.00;102805.75;4990577;28;20189;-68
2023/03/02 03:19:00;;;;;;;22.47;11.97;;;;;;;1.80;100.00;102807.00;4987438;28;21076;-70
2023/03/02 03:21:26;;;;;;;20.03;11.83;;;;;;;1.80;100.00;102802.88;4986620;28;20282;-69
2023/03/02 03:23:52;;;;;;;21.27;12.23;;;;;;;1.80;100.00;102809.53;4992474;28;20295;-70
2023/03/02 03:26:19;;;;;;;25.20;13.03;;;;;;;1.78;100.00;102800.94;4986246;28;20792;-69
2023/03/02 03:28:45;;;;;;;25.47;13.13;;;;;;;1.76;100.00;102805.88;4990289;28;20199;-70
2023/03/02 03:31:11;;;;;;;29.40;14.20;;;;;;;1.78;100.00;102809.41;4989839;28;20250;-69
2023/03/02 03:33:37;;;;;;;25.47;13.30;;;;;;;1.77;100.00;102814.31;4986595;28;20740;-69
2023/03/02 03:36:03;;;;;;;20.87;11.07;;;;;;;1.75;100.00;102819.22;4988928;28;20772;-69
2023/03/02 03:38:29;;;;;;;22.27;11.97;;;;;;;1.76;100.00;102808.41;4985237;28;20196;-68
2023/03/02 03:40:54;;;;;;;25.17;13.30;;;;;;;1.71;100.00;102817.22;4992563;28;20196;-70
2023/03/02 03:43:20;;;;;;;25.87;13.00;;;;;;;1.72;100.00;102815.56;4989258;28;20673;-70
2023/03/02 03:45:50;;;;;;;28.03;13.80;;;;;;;1.71;100.00;102817.22;4989929;28;20585;-69
2023/03/02 03:48:18;;;;;;;28.53;13.17;;;;;;;1.66;100.00;102820.97;4988068;28;20194;-68
2023/03/02 03:50:45;;;;;;;24.70;12.67;;;;;;;1.67;100.00;102812.66;4991607;28;20265;-69
2023/03/02 03:53:10;;;;;;;24.43;12.53;;;;;;;1.67;100.00;102815.19;4986504;28;20302;-70
2023/03/02 03:55:36;;;;;;;25.97;13.70;;;;;;;1.64;100.00;102814.00;4989758;28;20188;-69
2023/03/02 03:58:01;;;;;;;25.50;12.37;;;;;;;1.63;100.00;102815.66;4990189;28;20191;-69
2023/03/02 04:00:27;;;;;;;28.73;12.53;;;;;;;1.44;100.00;102821.50;4985780;28;20357;-69
2023/03/02 04:03:02;;;;;;;27.27;13.27;;;;;;;1.48;100.00;102819.41;4985918;28;20274;-69
2023/03/02 04:05:30;;;;;;;23.73;12.47;;;;;;;1.53;100.00;102822.31;4991058;28;20199;-69
2023/03/02 04:07:55;;;;;;;22.63;12.07;;;;;;;1.55;100.00;102819.16;4989330;28;20584;-69
2023/03/02 04:10:21;;;;;;;24.57;12.67;;;;;;;1.50;100.00;102822.94;4985128;28;20196;-70
2023/03/02 04:12:49;;;;;;;34.00;12.53;;;;;;;1.46;100.00;102820.03;4986384;28;20211;-69
2023/03/02 04:15:15;;;;;;;24.77;12.00;;;;;;;1.45;100.00;102821.66;4984218;28;20188;-70
2023/03/02 04:17:43;;;;;;;21.03;11.43;;;;;;;1.39;100.00;102813.56;4976054;28;20672;-70
2023/03/02 04:20:15;;;;;;;26.03;12.50;;;;;;;1.37;100.00;102811.66;4990456;28;20199;-69
2023/03/02 04:22:46;;;;;;;24.87;11.60;;;;;;;1.33;100.00;102812.13;4992086;28;20218;-70
2023/03/02 04:25:14;;;;;;;25.33;11.33;;;;;;;1.37;100.00;102806.59;4989678;28;20290;-70
2023/03/02 04:27:40;;;;;;;27.97;12.33;;;;;;;1.32;100.00;102820.47;4990073;28;20223;-70
2023/03/02 04:30:07;;;;;;;23.10;12.20;;;;;;;1.36;100.00;102810.75;4987837;28;20191;-69
2023/03/02 04:32:33;;;;;;;25.60;12.67;;;;;;;1.36;100.00;102812.38;4972769;28;20380;-69
2023/03/02 04:34:58;;;;;;;23.10;11.50;;;;;;;1.37;100.00;102814.16;4991088;28;20318;-70
2023/03/02 04:37:25;;;;;;;25.37;12.97;;;;;;;1.35;100.00;102818.19;4987009;28;20183;-69
2023/03/02 04:39:52;;;;;;;23.30;12.60;;;;;;;1.40;100.00;102814.41;4986823;28;20657;-69
2023/03/02 04:42:18;;;;;;;24.07;12.30;;;;;;;1.38;100.00;102820.97;4990299;28;20212;-66
2023/03/02 04:44:44;;;;;;;23.17;12.80;;;;;;;1.43;100.00;102822.28;4989147;28;20233;-70
2023/03/02 04:47:10;;;;;;;21.37;12.03;;;;;;;1.43;100.00;102818.13;4993546;28;20298;-69
2023/03/02 04:49:35;;;;;;;21.20;12.37;;;;;;;1.43;100.00;102822.28;4991617;28;20331;-70
2023/03/02 04:52:01;;;;;;;27.90;13.40;;;;;;;1.40;100.00;102819.47;4988656;28;20684;-69
2023/03/02 04:54:27;;;;;;;23.83;12.30;;;;;;;1.41;100.00;102822.13;4987925;28;20201;-69
2023/03/02 04:56:54;;;;;;;26.00;12.60;;;;;;;1.37;100.00;102822.59;4987563;28;20194;-68
2023/03/02 04:59:25;;;;;;;24.10;12.57;;;;;;;1.38;100.00;102820.97;4991190;28;20187;-70
2023/03/02 05:01:52;;;;;;;24.87;12.70;;;;;;;1.39;100.00;102823.66;4992706;28;20209;-68
2023/03/02 05:04:18;;;;;;;28.47;11.93;;;;;;;1.32;100.00;102826.38;4988836;28;20279;-69
2023/03/02 05:06:44;;;;;;;23.20;11.67;;;;;;;1.31;100.00;102834.69;4991524;28;20327;-70
2023/03/02 05:09:10;;;;;;;24.40;12.10;;;;;;;1.28;100.00;102836.06;4990700;28;20195;-69
2023/03/02 05:11:36;;;;;;;25.17;12.80;;;;;;;1.28;100.00;102834.41;4988571;28;20204;-67
2023/03/02 05:14:04;;;;;;;25.57;13.60;;;;;;;1.33;100.00;102837.34;4992217;28;20747;-70
2023/03/02 05:16:32;;;;;;;25.33;13.27;;;;;;;1.32;100.00;102831.41;4990276;28;20183;-69
2023/03/02 05:18:58;;;;;;;27.67;13.53;;;;;;;1.27;100.00;102836.78;4989927;28;20203;-69
2023/03/02 05:21:24;;;;;;;23.87;12.50;;;;;;;1.25;100.00;102836.69;4988710;28;20209;-68
2023/03/02 05:23:50;;;;;;;26.63;13.30;;;;;;;1.22;100.00;102843.06;4988236;28;20211;-68
2023/03/02 05:26:15;;;;;;;23.67;12.30;;;;;;;1.24;100.00;102844.97;4988533;28;20220;-68
2023/03/02 05:28:41;;;;;;;22.67;12.67;;;;;;;1.24;100.00;102836.56;4991328;28;20210;-70
2023/03/02 05:31:08;;;;;;;23.50;12.53;;;;;;;1.19;100.00;102838.66;4985539;28;20202;-69
2023/03/02 05:33:33;;;;;;;23.63;12.17;;;;;;;1.23;100.00;102839.84;4986035;28;20208;-67
2023/03/02 05:35:59;;;;;;;25.13;13.03;;;;;;;1.23;100.00;102829.75;4986420;28;20581;-69
2023/03/02 05:38:26;;;;;;;20.50;11.37;;;;;;;1.19;100.00;102835.25;4988837;28;20234;-69
2023/03/02 05:40:52;;;;;;;21.90;11.93;;;;;;;1.21;100.00;102837.16;4981178;28;20571;-67
2023/03/02 05:43:19;;;;;;;23.27;12.10;;;;;;;1.20;100.00;102831.97;4988708;28;20216;-69
2023/03/02 05:45:45;;;;;;;23.93;12.70;;;;;;;1.22;100.00;102835.50;4985317;28;20282;-69
2023/03/02 05:48:12;;;;;;;22.87;12.20;;;;;;;1.19;100.00;102825.19;4989304;28;20311;-69
2023/03/02 05:50:38;;;;;;;21.73;12.03;;;;;;;1.22;100.00;102825.41;4984052;28;20198;-69
2023/03/02 05:53:04;;;;;;;23.10;12.70;;;;;;;1.23;100.00;102825.56;4986087;28;20646;-68
2023/03/02 05:55:30;;;;;;;18.17;10.47;;;;;;;1.27;100.00;102829.22;4989367;28;20552;-69
2023/03/02 05:57:56;;;;;;;22.93;12.57;;;;;;;1.26;100.00;102823.31;4991272;28;20199;-69
2023/03/02 06:00:21;;;;;;;20.90;11.10;;;;;;;1.26;100.00;102835.03;4989404;28;20279;-68
2023/03/02 06:02:47;;;;;;;18.77;10.83;;;;;;;1.28;100.00;102841.13;4991014;28;20590;-67
2023/03/02 06:05:15;;;;;;;22.00;11.13;;;;;;;1.21;100.00;102834.66;4987414;28;20238;-69
2023/03/02 06:07:42;;;;;;;20.57;11.73;;;;;;;1.24;100.00;102844.97;4990913;28;20227;-69
2023/03/02 06:10:09;;;;;;;21.73;11.57;;;;;;;1.23;100.00;102838.16;4986957;28;20230;-69
2023/03/02 06:12:35;;;;;;;25.50;12.20;;;;;;;1.20;100.00;102842.06;4986662;28;20252;-69
2023/03/02 06:15:01;;;;;;;26.13;12.30;;;;;;;1.19;100.00;102836.13;4984528;28;20854;-67
2023/03/02 06:17:27;;;;;;;22.13;12.07;;;;;;;1.17;100.00;102832.59;4986163;28;20322;-69
2023/03/02 06:19:52;;;;;;;22.00;12.20;;;;;;;1.21;100.00;102836.28;4987958;28;20286;-69
2023/03/02 06:22:18;;;;;;;26.63;14.33;;;;;;;1.23;100.00;102834.78;4983272;28;20286;-70
2023/03/02 06:24:43;;;;;;;26.40;13.67;;;;;;;1.21;100.00;102833.75;4990043;28;20388;-70
2023/03/02 06:27:09;;;;;;;26.00;12.90;;;;;;;1.18;100.00;102830.94;4987384;28;20213;-68
2023/03/02 06:29:34;;;;;;;24.73;12.77;;;;;;;1.14;100.00;102828.94;4992982;28;20880;-67
2023/03/02 06:32:00;;;;;;;27.07;14.07;;;;;;;1.19;100.00;102838.66;4987853;28;20198;-68
2023/03/02 06:34:25;;;;;;;24.20;11.67;;;;;;;1.17;100.00;102837.66;4987595;28;20245;-67
2023/03/02 06:36:50;;;;;;;25.30;12.83;;;;;;;1.18;100.00;102836.00;4990624;28;20188;-68
2023/03/02 06:39:16;;;;;;;25.50;13.37;;;;;;;1.21;100.00;102838.78;4985679;28;20682;-69
2023/03/02 06:41:43;;;;;;;24.33;12.93;;;;;;;1.21;100.00;102838.78;4987223;28;20210;-67
2023/03/02 06:44:08;;;;;;;25.23;13.93;;;;;;;1.22;100.00;102843.97;4994087;28;20203;-69
2023/03/02 06:46:34;;;;;;;24.13;13.07;;;;;;;1.20;100.00;102837.03;4992665;28;20213;-68
2023/03/02 06:49:00;;;;;;;29.17;13.70;;;;;;;1.24;100.00;102844.97;4995347;28;20277;-68
2023/03/02 06:51:25;;;;;;;28.47;12.80;;;;;;;1.19;100.00;102840.31;4992553;28;20199;-68
2023/03/02 06:53:50;;;;;;;29.27;13.77;;;;;;;1.22;100.00;102833.88;4994421;28;20223;-69
2023/03/02 06:56:16;;;;;;;27.50;13.07;;;;;;;1.24;100.00;102836.56;4992153;28;20558;-68
2023/03/02 06:58:41;;;;;;;30.03;13.57;;;;;;;1.25;100.00;102840.84;4991240;28;20209;-69
2023/03/02 07:01:07;;;;;;;27.83;13.63;;;;;;;1.27;100.00;102836.78;4995225;28;20234;-70
2023/03/02 07:03:33;;;;;;;27.03;14.07;;;;;;;1.30;100.00;102835.47;4991701;28;20210;-69
2023/03/02 07:05:58;;;;;;;28.80;14.40;;;;;;;1.28;100.00;102825.97;5005245;28;20196;-69
2023/03/02 07:08:24;;;;;;;31.73;16.10;;;;;;;1.29;100.00;102828.59;4993407;28;20374;-70
2023/03/02 07:10:49;;;;;;;35.17;16.60;;;;;;;1.32;100.00;102828.03;4994129;28;20195;-69
2023/03/02 07:13:14;;;;;;;29.90;15.47;;;;;;;1.32;100.00;102825.50;4992566;28;20215;-68
2023/03/02 07:15:40;;;;;;;30.33;14.37;;;;;;;1.33;100.00;102827.28;4993725;28;20566;-69
2023/03/02 07:18:05;;;;;;;36.20;15.40;;;;;;;1.30;100.00;102835.47;4993497;28;20188;-69
2023/03/02 07:20:31;;;;;;;37.00;15.00;;;;;;;1.28;100.00;102825.97;4995133;28;20203;-68
2023/03/02 07:22:56;;;;;;;35.10;16.67;;;;;;;1.33;100.00;102832.31;4987857;28;20767;-69
2023/03/02 07:25:22;;;;;;;34.80;15.50;;;;;;;1.35;100.00;102829.16;4989590;28;20279;-69
2023/03/02 07:27:48;;;;;;;27.67;14.23;;;;;;;1.39;100.00;102830.31;4994656;28;20243;-69
2023/03/02 07:30:14;;;;;;;33.23;15.00;;;;;;;1.40;100.00;102819.47;4988398;28;20247;-69
2023/03/02 07:32:40;;;;;;;54.43;22.20;;;;;;;1.47;100.00;102816.75;4993465;28;20218;-67
2023/03/02 07:35:06;;;;;;;34.07;14.53;;;;;;;1.49;100.00;102813.59;4994428;28;20192;-66
2023/03/02 07:37:31;;;;;;;30.30;14.97;;;;;;;1.49;100.00;102813.59;4993865;28;20303;-69
2023/03/02 07:39:56;;;;;;;32.87;15.70;;;;;;;1.50;100.00;102810.31;4994246;28;20192;-69
2023/03/02 07:42:22;;;;;;;28.13;14.10;;;;;;;1.57;100.00;102807.59;4992515;28;20223;-69
2023/03/02 07:44:53;;;;;;;28.00;14.00;;;;;;;1.51;100.00;102813.72;4992073;28;20582;-68
2023/03/02 07:47:18;;;;;;;29.73;14.10;;;;;;;1.56;100.00;102809.97;4991102;28;20222;-68
2023/03/02 07:49:44;;;;;;;30.17;14.23;;;;;;;1.59;100.00;102811.09;4995328;28;20191;-67
2023/03/02 07:52:09;;;;;;;32.57;15.80;;;;;;;1.68;100.00;102803.44;4993141;28;20654;-69
2023/03/02 07:54:35;;;;;;;31.73;15.17;;;;;;;1.68;100.00;102813.53;4988217;28;20239;-69
2023/03/02 07:57:01;;;;;;;27.33;12.17;;;;;;;1.70;100.00;102812.03;4990380;28;20187;-69
2023/03/02 07:59:27;;;;;;;27.77;13.30;;;;;;;1.71;100.00;102806.22;4989994;28;20195;-68
2023/03/02 08:01:53;;;;;;;33.40;14.53;;;;;;;1.72;100.00;102800.41;4993286;28;20606;-68
2023/03/02 08:04:18;;;;;;;31.20;15.13;;;;;;;1.73;100.00;102798.03;4992314;28;20180;-68
2023/03/02 08:06:44;;;;;;;32.63;14.70;;;;;;;1.73;100.00;102805.59;4989093;28;20866;-69
2023/03/02 08:09:09;;;;;;;30.03;14.17;;;;;;;1.77;100.00;102806.75;4991915;28;20202;-69
2023/03/02 08:11:35;;;;;;;29.10;14.47;;;;;;;1.84;100.00;102807.41;4988855;28;20311;-70
2023/03/02 08:14:01;;;;;;;28.73;14.57;;;;;;;1.83;100.00;102807.28;4992271;28;20227;-69
2023/03/02 08:16:27;;;;;;;33.50;15.13;;;;;;;1.89;100.00;102805.28;4991170;28;20802;-69
2023/03/02 08:18:53;;;;;;;28.73;13.43;;;;;;;1.90;100.00;102800.38;4990725;28;20290;-68
2023/03/02 08:21:20;;;;;;;30.37;13.60;;;;;;;1.91;100.00;102812.22;4988602;28;20246;-68
2023/03/02 08:23:47;;;;;;;27.07;13.47;;;;;;;1.89;100.00;102803.63;4989464;28;20230;-68
2023/03/02 08:26:13;;;;;;;27.13;13.57;;;;;;;1.93;100.00;102797.22;4991613;28;20188;-68
2023/03/02 08:28:39;;;;;;;31.73;15.20;;;;;;;1.81;100.00;102814.72;4991649;28;20206;-68
2023/03/02 08:31:06;;;;;;;29.77;14.97;;;;;;;1.83;100.00;102808.16;4992773;28;20196;-69
2023/03/02 08:33:31;;;;;;;30.43;15.40;;;;;;;1.86;100.00;102807.53;4991592;28;20211;-70
2023/03/02 08:36:05;;;;;;;34.70;18.43;;;;;;;1.93;100.00;102809.84;4984590;28;20530;-69
2023/03/02 08:38:31;;;;;;;26.23;14.00;;;;;;;1.98;100.00;102796.81;4989657;28;20665;-69
2023/03/02 08:40:57;;;;;;;26.53;14.03;;;;;;;1.98;100.00;102801.88;4988579;28;20200;-68
2023/03/02 08:43:24;;;;;;;29.87;15.07;;;;;;;2.07;100.00;102802.66;4992496;28;20270;-69
2023/03/02 08:45:51;;;;;;;29.73;14.37;;;;;;;2.07;100.00;102801.78;4992297;28;20199;-68
2023/03/02 08:48:17;;;;;;;29.23;14.83;;;;;;;2.07;100.00;102795.06;4991499;28;20231;-67
2023/03/02 08:50:43;;;;;;;27.57;14.73;;;;;;;2.17;100.00;102792.59;4988355;28;20584;-68
2023/03/02 08:53:08;;;;;;;30.27;15.17;;;;;;;2.42;100.00;102791.31;4961206;28;20217;-69
2023/03/02 08:55:35;;;;;;;26.93;13.57;;;;;;;2.37;100.00;102797.66;4963791;28;20205;-69
2023/03/02 08:58:02;;;;;;;27.50;13.57;;;;;;;2.30;100.00;102802.06;4969243;28;20211;-69
2023/03/02 09:00:28;;;;;;;28.03;13.83;;;;;;;2.23;100.00;102793.09;4962506;28;20204;-69
2023/03/02 09:02:53;;;;;;;31.40;14.30;;;;;;;2.25;100.00;102793.22;4969243;28;20747;-69
2023/03/02 09:05:19;;;;;;;28.90;15.23;;;;;;;2.31;100.00;102793.72;4969962;28;20280;-69
2023/03/02 09:07:44;;;;;;;28.40;14.67;;;;;;;2.33;100.00;102782.09;4969321;28;20227;-70
2023/03/02 09:10:10;;;;;;;28.83;14.40;;;;;;;2.37;100.00;102789.16;4971007;28;20200;-68
2023/03/02 09:12:35;;;;;;;28.73;13.93;;;;;;;2.38;100.00;102788.41;4970572;28;20271;-69
2023/03/02 09:15:01;;;;;;;28.63;14.10;;;;;;;2.32;100.00;102781.22;4971464;28;20198;-68
2023/03/02 09:17:26;;;;;;;23.30;12.63;;;;;;;2.34;100.00;102783.88;4972769;28;20603;-69
2023/03/02 09:19:52;;;;;;;29.37;13.90;;;;;;;2.41;100.00;102783.59;4972295;28;20235;-70
2023/03/02 09:22:17;;;;;;;27.13;14.00;;;;;;;2.32;100.00;102780.31;4971665;28;20212;-67
2023/03/02 09:24:43;;;;;;;24.90;12.90;;;;;;;2.37;100.00;102776.53;4973784;28;20199;-69
2023/03/02 09:27:08;;;;;;;31.33;15.40;;;;;;;2.41;100.00;102768.44;4970568;28;20216;-70
2023/03/02 09:29:33;;;;;;;26.13;13.17;;;;;;;2.44;100.00;102764.53;4974712;28;20189;-69
2023/03/02 09:31:59;;;;;;;28.03;13.80;;;;;;;2.49;100.00;102762.38;4969277;28;20196;-69
2023/03/02 09:34:24;;;;;;;27.43;14.17;;;;;;;2.59;100.00;102760.75;4970821;28;20192;-70
2023/03/02 09:36:50;;;;;;;24.93;13.03;;;;;;;2.57;100.00;102762.25;4971277;28;20574;-70
2023/03/02 09:39:16;;;;;;;26.13;13.90;;;;;;;2.63;100.00;102765.28;4966102;28;20196;-69
2023/03/02 09:41:59;;;;;;;25.90;13.13;;;;;;;2.70;100.00;102759.06;4965440;28;20200;-69
2023/03/02 09:44:36;;;;;;;24.17;13.00;;;;;;;2.68;100.00;102763.13;4971463;28;20688;-71
2023/03/02 09:47:14;;;;;;;25.17;13.60;;;;;;;2.74;100.00;102764.50;4968060;28;20631;-69
2023/03/02 09:49:59;;;;;;;26.53;12.73;;;;;;;2.73;100.00;102771.97;4974115;28;20657;-70
2023/03/02 09:52:39;;;;;;;26.30;12.83;;;;;;;2.68;100.00;102765.66;4964463;28;20248;-70
2023/03/02 09:55:15;;;;;;;25.30;13.67;;;;;;;2.73;100.00;102772.88;4972661;28;20681;-70
2023/03/02 09:57:41;;;;;;;27.40;13.03;;;;;;;2.76;100.00;102774.75;4971426;28;20724;-68
2023/03/02 10:00:26;;;;;;;26.77;13.00;;;;;;;2.75;100.00;102783.09;4967725;28;20786;-69
2023/03/02 10:03:00;;;;;;;27.53;13.27;;;;;;;2.76;100.00;102788.25;4966396;28;20591;-69
2023/03/02 10:05:39;;;;;;;25.87;13.53;;;;;;;2.85;100.00;102778.03;4969385;28;20199;-69
2023/03/02 10:08:14;;;;;;;21.80;12.03;;;;;;;2.84;100.00;102779.66;4971565;28;20208;-69
2023/03/02 10:10:45;;;;;;;21.50;12.27;;;;;;;3.07;100.00;102776.44;4971045;28;20190;-70
2023/03/02 10:13:13;;;;;;;22.30;12.53;;;;;;;3.10;100.00;102776.69;4965704;28;20316;-70
2023/03/02 10:15:57;;;;;;;22.67;12.50;;;;;;;3.17;100.00;102786.56;4968523;28;20203;-67
2023/03/02 10:18:50;;;;;;;21.97;12.10;;;;;;;3.16;100.00;102783.13;4967023;28;20784;-69
2023/03/02 10:21:36;;;;;;;21.27;11.77;;;;;;;2.97;100.00;102779.91;4975619;28;20560;-69
2023/03/02 10:24:25;;;;;;;24.67;12.83;;;;;;;3.12;100.00;102776.06;4970523;28;20208;-68
2023/03/02 10:27:07;;;;;;;23.03;12.17;;;;;;;3.14;100.00;102768.59;4967202;28;20228;-70
2023/03/02 10:29:41;;;;;;;21.73;11.87;;;;;;;3.02;100.00;102780.25;4973015;28;20193;-69
2023/03/02 10:32:28;;;;;;;23.37;13.30;;;;;;;3.06;100.00;102773.03;4968548;28;20216;-69
2023/03/02 10:34:54;;;;;;;24.93;12.57;;;;;;;3.13;100.00;102772.75;4974433;28;20204;-69
2023/03/02 10:37:27;;;;;;;21.33;12.40;;;;;;;3.31;100.00;102770.81;4973956;28;20196;-70
2023/03/02 10:39:53;;;;;;;23.70;13.03;;;;;;;3.31;100.00;102771.69;4974475;28;20282;-70
2023/03/02 10:42:24;;;;;;;23.73;12.50;;;;;;;3.40;100.00;102767.34;4956308;28;20216;-69
2023/03/02 10:44:54;;;;;;;22.33;12.63;;;;;;;3.44;100.00;102768.47;4975936;28;20270;-69
2023/03/02 10:47:25;;;;;;;24.17;12.80;;;;;;;3.31;100.00;102764.09;4975131;28;20212;-70
2023/03/02 10:49:53;;;;;;;22.33;12.97;;;;;;;3.37;100.00;102772.19;4972545;28;20286;-69
2023/03/02 10:52:21;;;;;;;24.67;14.17;;;;;;;3.49;100.00;102767.19;4975226;28;20212;-69
2023/03/02 10:54:47;;;;;;;24.80;13.30;;;;;;;3.55;100.00;102767.66;4965499;28;20199;-68
2023/03/02 10:57:19;;;;;;;25.20;14.07;;;;;;;3.50;100.00;102761.38;4974135;28;20196;-69
2023/03/02 10:59:46;;;;;;;22.90;12.73;;;;;;;3.57;100.00;102749.31;4970669;28;20196;-69
2023/03/02 11:02:23;;;;;;;21.43;12.00;;;;;;;3.66;100.00;102757.59;4975672;28;20216;-69
2023/03/02 11:04:57;;;;;;;22.30;12.37;;;;;;;3.77;100.00;102764.38;4971816;28;20215;-69
2023/03/02 11:07:25;;;;;;;18.63;10.93;;;;;;;3.78;100.00;102761.06;4971042;28;20243;-68
2023/03/02 11:10:18;;;;;;;20.90;12.50;;;;;;;3.74;100.00;102754.03;4972527;28;20203;-69
2023/03/02 11:12:46;;;;;;;19.97;11.53;;;;;;;3.89;100.00;102757.72;4971692;28;20223;-69